sensor_id;sensor_type;location;lat;lon;timestamp;temperature;humidity
44509;DHT22;30214;52.246;14.408;2023-01-08T00:01:17;7.80;99.90
44509;DHT22;30214;52.246;14.408;2023-01-08T00:03:44;7.80;99.90
44509;DHT22;30214;52.246;14.408;2023-01-08T00:06:17;7.80;99.90
44509;DHT22;30214;52.246;14.408;2023-01-08T00:08:46;7.80;99.90
44509;DHT22;30214;52.246;14.408;2023-01-08T00:11:13;7.80;99.90
44509;DHT22;30214;52.246;14.408;2023-01-08T00:13:41;7.80;99.90
44509;DHT22;30214;52.246;14.408;2023-01-08T00:16:10;7.80;99.90
44509;DHT22;30214;52.246;14.408;2023-01-08T00:18:40;7.80;99.90
44509;DHT22;30214;52.246;14.408;2023-01-08T00:21:07;7.80;99.90
44509;DHT22;30214;52.246;14.408;2023-01-08T00:23:36;7.80;99.90
44509;DHT22;30214;52.246;14.408;2023-01-08T00:26:05;7.90;99.90
44509;DHT22;30214;52.246;14.408;2023-01-08T00:28:34;7.80;99.90
44509;DHT22;30214;52.246;14.408;2023-01-08T00:31:03;7.80;99.90
44509;DHT22;30214;52.246;14.408;2023-01-08T00:33:31;7.80;99.90
44509;DHT22;30214;52.246;14.408;2023-01-08T00:36:06;7.70;99.90
44509;DHT22;30214;52.246;14.408;2023-01-08T00:38:35;7.70;99.90
44509;DHT22;30214;52.246;14.408;2023-01-08T00:41:03;7.70;99.90
44509;DHT22;30214;52.246;14.408;2023-01-08T00:43:30;7.70;99.90
44509;DHT22;30214;52.246;14.408;2023-01-08T00:45:57;7.70;99.90
44509;DHT22;30214;52.246;14.408;2023-01-08T00:48:27;7.70;99.90
44509;DHT22;30214;52.246;14.408;2023-01-08T00:50:55;7.70;99.90
44509;DHT22;30214;52.246;14.408;2023-01-08T00:53:22;7.70;99.90
44509;DHT22;30214;52.246;14.408;2023-01-08T00:55:58;7.60;99.90
44509;DHT22;30214;52.246;14.408;2023-01-08T00:58:26;7.60;99.90
44509;DHT22;30214;52.246;14.408;2023-01-08T01:00:53;7.60;99.90
44509;DHT22;30214;52.246;14.408;2023-01-08T01:03:20;7.50;99.90
44509;DHT22;30214;52.246;14.408;2023-01-08T01:05:48;7.50;99.90
44509;DHT22;30214;52.246;14.408;2023-01-08T01:08:15;7.40;99.90
44509;DHT22;30214;52.246;14.408;2023-01-08T01:10:42;7.30;99.90
44509;DHT22;30214;52.246;14.408;2023-01-08T01:13:11;7.30;99.90
44509;DHT22;30214;52.246;14.408;2023-01-08T01:15:41;7.20;99.90
44509;DHT22;30214;52.246;14.408;2023-01-08T01:18:08;7.20;99.90
44509;DHT22;30214;52.246;14.408;2023-01-08T01:20:35;7.20;99.90
44509;DHT22;30214;52.246;14.408;2023-01-08T01:23:03;7.10;99.90
44509;DHT22;30214;52.246;14.408;2023-01-08T01:25:30;7.10;99.90
44509;DHT22;30214;52.246;14.408;2023-01-08T01:28:02;7.00;99.90
44509;DHT22;30214;52.246;14.408;2023-01-08T01:30:33;7.00;99.90
44509;DHT22;30214;52.246;14.408;2023-01-08T01:33:00;6.90;99.90
44509;DHT22;30214;52.246;14.408;2023-01-08T01:35:27;6.90;99.90
44509;DHT22;30214;52.246;14.408;2023-01-08T01:37:54;7.00;99.90
44509;DHT22;30214;52.246;14.408;2023-01-08T01:40:21;7.00;99.90
44509;DHT22;30214;52.246;14.408;2023-01-08T01:42:49;7.00;99.90
44509;DHT22;30214;52.246;14.408;2023-01-08T01:45:18;7.00;99.90
44509;DHT22;30214;52.246;14.408;2023-01-08T01:47:51;7.00;99.90
44509;DHT22;30214;52.246;14.408;2023-01-08T01:50:24;7.00;99.90
44509;DHT22;30214;52.246;14.408;2023-01-08T01:52:58;7.00;99.90
44509;DHT22;30214;52.246;14.408;2023-01-08T01:55:27;6.90;99.90
44509;DHT22;30214;52.246;14.408;2023-01-08T01:58:02;6.90;99.90
44509;DHT22;30214;52.246;14.408;2023-01-08T02:00:32;6.80;99.90
44509;DHT22;30214;52.246;14.408;2023-01-08T02:03:01;6.80;99.90
44509;DHT22;30214;52.246;14.408;2023-01-08T02:05:40;6.80;99.90
44509;DHT22;30214;52.246;14.408;2023-01-08T02:08:17;6.80;99.90
44509;DHT22;30214;52.246;14.408;2023-01-08T02:10:52;6.80;99.90
44509;DHT22;30214;52.246;14.408;2023-01-08T02:13:26;6.70;99.90
44509;DHT22;30214;52.246;14.408;2023-01-08T02:15:58;6.80;99.90
44509;DHT22;30214;52.246;14.408;2023-01-08T02:18:33;6.70;99.90
44509;DHT22;30214;52.246;14.408;2023-01-08T02:21:07;6.70;99.90
44509;DHT22;30214;52.246;14.408;2023-01-08T02:23:43;6.60;99.90
44509;DHT22;30214;52.246;14.408;2023-01-08T02:26:16;6.60;99.90
44509;DHT22;30214;52.246;14.408;2023-01-08T02:28:48;6.60;99.90
44509;DHT22;30214;52.246;14.408;2023-01-08T02:31:19;6.50;99.90
44509;DHT22;30214;52.246;14.408;2023-01-08T02:33:47;6.50;99.90
44509;DHT22;30214;52.246;14.408;2023-01-08T02:36:23;6.50;99.90
44509;DHT22;30214;52.246;14.408;2023-01-08T02:39:08;6.50;99.90
44509;DHT22;30214;52.246;14.408;2023-01-08T02:41:51;6.50;99.90
44509;DHT22;30214;52.246;14.408;2023-01-08T02:44:24;6.40;99.90
44509;DHT22;30214;52.246;14.408;2023-01-08T02:46:55;6.40;99.90
44509;DHT22;30214;52.246;14.408;2023-01-08T02:49:29;6.40;99.90
44509;DHT22;30214;52.246;14.408;2023-01-08T02:51:59;6.30;99.90
44509;DHT22;30214;52.246;14.408;2023-01-08T02:54:33;6.30;99.90
44509;DHT22;30214;52.246;14.408;2023-01-08T02:57:05;6.30;99.90
44509;DHT22;30214;52.246;14.408;2023-01-08T02:59:36;6.30;99.90
44509;DHT22;30214;52.246;14.408;2023-01-08T03:02:04;6.30;99.90
44509;DHT22;30214;52.246;14.408;2023-01-08T03:04:39;6.20;99.90
44509;DHT22;30214;52.246;14.408;2023-01-08T03:07:10;6.10;99.90
44509;DHT22;30214;52.246;14.408;2023-01-08T03:09:38;6.10;99.90
44509;DHT22;30214;52.246;14.408;2023-01-08T03:12:13;6.10;99.90
44509;DHT22;30214;52.246;14.408;2023-01-08T03:14:46;6.00;99.90
44509;DHT22;30214;52.246;14.408;2023-01-08T03:17:23;5.90;99.90
44509;DHT22;30214;52.246;14.408;2023-01-08T03:19:53;5.90;99.90
44509;DHT22;30214;52.246;14.408;2023-01-08T03:22:23;5.90;99.90
44509;DHT22;30214;52.246;14.408;2023-01-08T03:24:51;5.80;99.90
44509;DHT22;30214;52.246;14.408;2023-01-08T03:27:24;5.80;99.90
44509;DHT22;30214;52.246;14.408;2023-01-08T03:29:56;5.80;99.90
44509;DHT22;30214;52.246;14.408;2023-01-08T03:32:25;5.80;99.90
44509;DHT22;30214;52.246;14.408;2023-01-08T03:34:56;5.90;99.90
44509;DHT22;30214;52.246;14.408;2023-01-08T03:37:28;5.80;99.90
44509;DHT22;30214;52.246;14.408;2023-01-08T03:40:02;5.80;99.90
44509;DHT22;30214;52.246;14.408;2023-01-08T03:42:33;5.70;99.90
44509;DHT22;30214;52.246;14.408;2023-01-08T03:45:01;5.70;99.90
44509;DHT22;30214;52.246;14.408;2023-01-08T03:47:29;5.70;99.90
44509;DHT22;30214;52.246;14.408;2023-01-08T03:50:01;5.70;99.90
44509;DHT22;30214;52.246;14.408;2023-01-08T03:52:31;5.70;99.90
44509;DHT22;30214;52.246;14.408;2023-01-08T03:54:58;5.60;99.90
44509;DHT22;30214;52.246;14.408;2023-01-08T03:57:25;5.60;99.90
44509;DHT22;30214;52.246;14.408;2023-01-08T03:59:54;5.60;99.90
44509;DHT22;30214;52.246;14.408;2023-01-08T04:02:21;5.60;99.90
44509;DHT22;30214;52.246;14.408;2023-01-08T04:04:48;5.60;99.90
44509;DHT22;30214;52.246;14.408;2023-01-08T04:07:15;5.60;99.90
44509;DHT22;30214;52.246;14.408;2023-01-08T04:09:42;5.50;99.90
44509;DHT22;30214;52.246;14.408;2023-01-08T04:12:09;5.50;99.90
44509;DHT22;30214;52.246;14.408;2023-01-08T04:14:36;5.50;99.90
44509;DHT22;30214;52.246;14.408;2023-01-08T04:17:05;5.50;99.90
44509;DHT22;30214;52.246;14.408;2023-01-08T04:19:32;5.50;99.90
44509;DHT22;30214;52.246;14.408;2023-01-08T04:21:59;5.50;99.90
44509;DHT22;30214;52.246;14.408;2023-01-08T04:24:26;5.60;99.90
44509;DHT22;30214;52.246;14.408;2023-01-08T04:26:53;5.60;99.90
44509;DHT22;30214;52.246;14.408;2023-01-08T04:29:20;5.70;99.90
44509;DHT22;30214;52.246;14.408;2023-01-08T04:31:47;5.70;99.90
44509;DHT22;30214;52.246;14.408;2023-01-08T04:34:16;5.70;99.90
44509;DHT22;30214;52.246;14.408;2023-01-08T04:36:43;5.70;99.90
44509;DHT22;30214;52.246;14.408;2023-01-08T04:39:10;5.80;99.90
44509;DHT22;30214;52.246;14.408;2023-01-08T04:41:37;5.70;99.90
44509;DHT22;30214;52.246;14.408;2023-01-08T04:44:04;5.70;99.90
44509;DHT22;30214;52.246;14.408;2023-01-08T04:46:31;5.70;99.90
44509;DHT22;30214;52.246;14.408;2023-01-08T04:48:58;5.80;99.90
44509;DHT22;30214;52.246;14.408;2023-01-08T04:51:27;5.80;99.90
44509;DHT22;30214;52.246;14.408;2023-01-08T04:53:54;5.80;99.90
44509;DHT22;30214;52.246;14.408;2023-01-08T04:56:21;5.70;99.90
44509;DHT22;30214;52.246;14.408;2023-01-08T04:58:48;5.70;99.90
44509;DHT22;30214;52.246;14.408;2023-01-08T05:01:18;5.70;99.90
44509;DHT22;30214;52.246;14.408;2023-01-08T05:03:47;5.80;99.90
44509;DHT22;30214;52.246;14.408;2023-01-08T05:06:18;5.80;99.90
44509;DHT22;30214;52.246;14.408;2023-01-08T05:08:47;5.90;99.90
44509;DHT22;30214;52.246;14.408;2023-01-08T05:11:14;5.80;99.90
44509;DHT22;30214;52.246;14.408;2023-01-08T05:13:41;5.80;99.90
44509;DHT22;30214;52.246;14.408;2023-01-08T05:16:08;5.90;99.90
44509;DHT22;30214;52.246;14.408;2023-01-08T05:18:35;6.00;99.90
44509;DHT22;30214;52.246;14.408;2023-01-08T05:21:05;6.00;99.90
44509;DHT22;30214;52.246;14.408;2023-01-08T05:23:33;6.00;99.90
44509;DHT22;30214;52.246;14.408;2023-01-08T05:26:04;6.00;99.90
44509;DHT22;30214;52.246;14.408;2023-01-08T05:28:32;5.90;99.90
44509;DHT22;30214;52.246;14.408;2023-01-08T05:31:00;6.00;99.90
44509;DHT22;30214;52.246;14.408;2023-01-08T05:33:27;5.90;99.90
44509;DHT22;30214;52.246;14.408;2023-01-08T05:35:54;5.90;99.90
44509;DHT22;30214;52.246;14.408;2023-01-08T05:38:21;5.90;99.90
44509;DHT22;30214;52.246;14.408;2023-01-08T05:40:51;5.80;99.90
44509;DHT22;30214;52.246;14.408;2023-01-08T05:43:19;5.70;99.90
44509;DHT22;30214;52.246;14.408;2023-01-08T05:45:47;5.70;99.90
44509;DHT22;30214;52.246;14.408;2023-01-08T05:48:14;5.60;99.90
44509;DHT22;30214;52.246;14.408;2023-01-08T05:50:41;5.60;99.90
44509;DHT22;30214;52.246;14.408;2023-01-08T05:53:08;5.50;99.90
44509;DHT22;30214;52.246;14.408;2023-01-08T05:55:36;5.50;99.90
44509;DHT22;30214;52.246;14.408;2023-01-08T05:58:05;5.40;99.90
44509;DHT22;30214;52.246;14.408;2023-01-08T06:00:34;5.40;99.90
44509;DHT22;30214;52.246;14.408;2023-01-08T06:03:01;5.40;99.90
44509;DHT22;30214;52.246;14.408;2023-01-08T06:05:31;5.40;99.90
44509;DHT22;30214;52.246;14.408;2023-01-08T06:07:59;5.50;99.90
44509;DHT22;30214;52.246;14.408;2023-01-08T06:10:26;5.50;99.90
44509;DHT22;30214;52.246;14.408;2023-01-08T06:12:53;5.50;99.90
44509;DHT22;30214;52.246;14.408;2023-01-08T06:15:21;5.60;99.90
44509;DHT22;30214;52.246;14.408;2023-01-08T06:17:49;5.70;99.90
44509;DHT22;30214;52.246;14.408;2023-01-08T06:20:16;5.70;99.90
44509;DHT22;30214;52.246;14.408;2023-01-08T06:22:43;5.70;99.90
44509;DHT22;30214;52.246;14.408;2023-01-08T06:25:10;5.70;99.90
44509;DHT22;30214;52.246;14.408;2023-01-08T06:27:38;5.70;99.90
44509;DHT22;30214;52.246;14.408;2023-01-08T06:30:06;5.80;99.90
44509;DHT22;30214;52.246;14.408;2023-01-08T06:32:33;5.80;99.90
44509;DHT22;30214;52.246;14.408;2023-01-08T06:35:02;5.80;99.90
44509;DHT22;30214;52.246;14.408;2023-01-08T06:37:30;5.80;99.90
44509;DHT22;30214;52.246;14.408;2023-01-08T06:39:57;5.90;99.90
44509;DHT22;30214;52.246;14.408;2023-01-08T06:42:25;5.80;99.90
44509;DHT22;30214;52.246;14.408;2023-01-08T06:44:52;5.80;99.90
44509;DHT22;30214;52.246;14.408;2023-01-08T06:47:19;5.90;99.90
44509;DHT22;30214;52.246;14.408;2023-01-08T06:49:46;5.80;99.90
44509;DHT22;30214;52.246;14.408;2023-01-08T06:52:14;5.80;99.90
44509;DHT22;30214;52.246;14.408;2023-01-08T06:54:41;5.90;99.90
44509;DHT22;30214;52.246;14.408;2023-01-08T06:57:08;5.90;99.90
44509;DHT22;30214;52.246;14.408;2023-01-08T06:59:35;6.00;99.90
44509;DHT22;30214;52.246;14.408;2023-01-08T07:02:02;6.00;99.90
44509;DHT22;30214;52.246;14.408;2023-01-08T07:04:30;6.00;99.90
44509;DHT22;30214;52.246;14.408;2023-01-08T07:06:57;6.00;99.90
44509;DHT22;30214;52.246;14.408;2023-01-08T07:09:26;6.10;99.90
44509;DHT22;30214;52.246;14.408;2023-01-08T07:11:53;6.10;99.90
44509;DHT22;30214;52.246;14.408;2023-01-08T07:14:20;6.10;99.90
44509;DHT22;30214;52.246;14.408;2023-01-08T07:16:47;6.00;99.90
44509;DHT22;30214;52.246;14.408;2023-01-08T07:19:14;6.10;99.90
44509;DHT22;30214;52.246;14.408;2023-01-08T07:21:41;6.10;99.90
44509;DHT22;30214;52.246;14.408;2023-01-08T07:24:08;6.10;99.90
44509;DHT22;30214;52.246;14.408;2023-01-08T07:26:37;6.10;99.90
44509;DHT22;30214;52.246;14.408;2023-01-08T07:29:07;6.10;99.90
44509;DHT22;30214;52.246;14.408;2023-01-08T07:31:34;6.10;99.90
44509;DHT22;30214;52.246;14.408;2023-01-08T07:34:02;6.10;99.90
44509;DHT22;30214;52.246;14.408;2023-01-08T07:36:29;6.20;99.90
44509;DHT22;30214;52.246;14.408;2023-01-08T07:38:56;6.20;99.90
44509;DHT22;30214;52.246;14.408;2023-01-08T07:41:23;6.20;99.90
44509;DHT22;30214;52.246;14.408;2023-01-08T07:43:53;6.20;99.90
44509;DHT22;30214;52.246;14.408;2023-01-08T07:46:21;6.30;99.90
44509;DHT22;30214;52.246;14.408;2023-01-08T07:48:48;6.20;99.90
44509;DHT22;30214;52.246;14.408;2023-01-08T07:51:15;6.20;99.90
44509;DHT22;30214;52.246;14.408;2023-01-08T07:53:42;6.20;99.90
44509;DHT22;30214;52.246;14.408;2023-01-08T07:56:09;6.20;99.90
44509;DHT22;30214;52.246;14.408;2023-01-08T07:58:37;6.30;99.90
44509;DHT22;30214;52.246;14.408;2023-01-08T08:01:09;6.40;99.90
44509;DHT22;30214;52.246;14.408;2023-01-08T08:03:37;6.40;99.90
44509;DHT22;30214;52.246;14.408;2023-01-08T08:06:05;6.40;99.90
44509;DHT22;30214;52.246;14.408;2023-01-08T08:08:32;6.40;99.90
44509;DHT22;30214;52.246;14.408;2023-01-08T08:11:00;6.40;99.90
44509;DHT22;30214;52.246;14.408;2023-01-08T08:13:27;6.50;99.90
44509;DHT22;30214;52.246;14.408;2023-01-08T08:15:54;6.50;99.90
44509;DHT22;30214;52.246;14.408;2023-01-08T08:18:23;6.50;99.90
44509;DHT22;30214;52.246;14.408;2023-01-08T08:20:51;6.60;99.90
44509;DHT22;30214;52.246;14.408;2023-01-08T08:23:18;6.70;99.90
44509;DHT22;30214;52.246;14.408;2023-01-08T08:25:46;6.70;99.90
44509;DHT22;30214;52.246;14.408;2023-01-08T08:28:13;6.70;99.90
44509;DHT22;30214;52.246;14.408;2023-01-08T08:30:41;6.80;99.90
44509;DHT22;30214;52.246;14.408;2023-01-08T08:33:09;6.80;99.90
44509;DHT22;30214;52.246;14.408;2023-01-08T08:35:38;6.90;99.90
44509;DHT22;30214;52.246;14.408;2023-01-08T08:38:05;6.90;99.90
44509;DHT22;30214;52.246;14.408;2023-01-08T08:40:33;7.00;99.90
44509;DHT22;30214;52.246;14.408;2023-01-08T08:43:02;7.10;99.90
44509;DHT22;30214;52.246;14.408;2023-01-08T08:45:30;7.20;99.90
44509;DHT22;30214;52.246;14.408;2023-01-08T08:47:57;7.20;99.90
44509;DHT22;30214;52.246;14.408;2023-01-08T08:50:24;7.30;99.90
44509;DHT22;30214;52.246;14.408;2023-01-08T08:52:58;7.40;99.90
44509;DHT22;30214;52.246;14.408;2023-01-08T08:55:25;7.50;99.90
44509;DHT22;30214;52.246;14.408;2023-01-08T08:57:53;7.60;99.90
44509;DHT22;30214;52.246;14.408;2023-01-08T09:00:20;7.70;99.90
44509;DHT22;30214;52.246;14.408;2023-01-08T09:02:48;7.70;99.90
44509;DHT22;30214;52.246;14.408;2023-01-08T09:05:16;7.80;99.90
44509;DHT22;30214;52.246;14.408;2023-01-08T09:07:43;7.80;99.90
44509;DHT22;30214;52.246;14.408;2023-01-08T09:10:12;7.90;99.90
44509;DHT22;30214;52.246;14.408;2023-01-08T09:12:39;7.90;99.90
44509;DHT22;30214;52.246;14.408;2023-01-08T09:15:07;7.90;99.90
44509;DHT22;30214;52.246;14.408;2023-01-08T09:17:36;8.00;99.90
44509;DHT22;30214;52.246;14.408;2023-01-08T09:20:04;8.10;99.90
44509;DHT22;30214;52.246;14.408;2023-01-08T09:22:32;8.10;99.90
44509;DHT22;30214;52.246;14.408;2023-01-08T09:24:59;8.20;99.90
44509;DHT22;30214;52.246;14.408;2023-01-08T09:27:28;8.30;99.90
44509;DHT22;30214;52.246;14.408;2023-01-08T09:29:55;8.30;99.90
44509;DHT22;30214;52.246;14.408;2023-01-08T09:32:22;8.40;99.90
44509;DHT22;30214;52.246;14.408;2023-01-08T09:34:49;8.40;99.90
44509;DHT22;30214;52.246;14.408;2023-01-08T09:37:16;8.40;99.90
44509;DHT22;30214;52.246;14.408;2023-01-08T09:39:43;8.50;99.90
44509;DHT22;30214;52.246;14.408;2023-01-08T09:42:12;8.50;99.90
44509;DHT22;30214;52.246;14.408;2023-01-08T09:44:42;8.50;99.90
44509;DHT22;30214;52.246;14.408;2023-01-08T09:47:21;8.60;99.90
44509;DHT22;30214;52.246;14.408;2023-01-08T09:49:53;8.60;99.90
44509;DHT22;30214;52.246;14.408;2023-01-08T09:52:24;8.70;99.90
44509;DHT22;30214;52.246;14.408;2023-01-08T09:54:51;8.70;99.90
44509;DHT22;30214;52.246;14.408;2023-01-08T09:57:20;8.70;99.90
44509;DHT22;30214;52.246;14.408;2023-01-08T09:59:49;8.80;99.90
44509;DHT22;30214;52.246;14.408;2023-01-08T10:02:18;8.80;99.90
44509;DHT22;30214;52.246;14.408;2023-01-08T10:04:52;8.80;99.90
44509;DHT22;30214;52.246;14.408;2023-01-08T10:07:22;8.90;99.90
44509;DHT22;30214;52.246;14.408;2023-01-08T10:09:52;8.90;99.90
44509;DHT22;30214;52.246;14.408;2023-01-08T10:12:24;8.90;99.90
44509;DHT22;30214;52.246;14.408;2023-01-08T10:14:57;9.00;99.90
44509;DHT22;30214;52.246;14.408;2023-01-08T10:17:28;9.00;99.90
44509;DHT22;30214;52.246;14.408;2023-01-08T10:19:57;9.00;99.90
44509;DHT22;30214;52.246;14.408;2023-01-08T10:22:30;9.00;99.90
44509;DHT22;30214;52.246;14.408;2023-01-08T10:25:05;9.00;99.90
44509;DHT22;30214;52.246;14.408;2023-01-08T10:27:43;9.00;99.90
44509;DHT22;30214;52.246;14.408;2023-01-08T10:30:16;8.90;99.90
44509;DHT22;30214;52.246;14.408;2023-01-08T10:32:50;8.90;99.90
44509;DHT22;30214;52.246;14.408;2023-01-08T10:35:19;8.90;99.90
44509;DHT22;30214;52.246;14.408;2023-01-08T10:37:49;8.80;99.90
44509;DHT22;30214;52.246;14.408;2023-01-08T10:40:23;8.80;99.90
44509;DHT22;30214;52.246;14.408;2023-01-08T10:42:56;8.80;99.90
44509;DHT22;30214;52.246;14.408;2023-01-08T10:45:33;8.70;99.90
44509;DHT22;30214;52.246;14.408;2023-01-08T10:48:03;8.80;99.90
44509;DHT22;30214;52.246;14.408;2023-01-08T10:50:33;8.80;99.90
44509;DHT22;30214;52.246;14.408;2023-01-08T10:53:04;8.80;99.90
44509;DHT22;30214;52.246;14.408;2023-01-08T10:55:56;8.70;99.90
44509;DHT22;30214;52.246;14.408;2023-01-08T10:58:23;8.80;99.90
44509;DHT22;30214;52.246;14.408;2023-01-08T11:00:52;8.80;99.90
44509;DHT22;30214;52.246;14.408;2023-01-08T11:03:27;8.80;99.90
44509;DHT22;30214;52.246;14.408;2023-01-08T11:05:56;8.80;99.90
44509;DHT22;30214;52.246;14.408;2023-01-08T11:08:24;8.80;99.90
44509;DHT22;30214;52.246;14.408;2023-01-08T11:10:53;8.80;99.90
44509;DHT22;30214;52.246;14.408;2023-01-08T11:13:21;8.80;99.90
44509;DHT22;30214;52.246;14.408;2023-01-08T11:16:00;8.80;99.90
44509;DHT22;30214;52.246;14.408;2023-01-08T11:18:29;8.90;99.90
44509;DHT22;30214;52.246;14.408;2023-01-08T11:21:06;8.90;99.90
44509;DHT22;30214;52.246;14.408;2023-01-08T11:23:35;9.00;99.90
44509;DHT22;30214;52.246;14.408;2023-01-08T11:26:07;9.00;99.90
44509;DHT22;30214;52.246;14.408;2023-01-08T11:28:46;9.00;99.90
44509;DHT22;30214;52.246;14.408;2023-01-08T11:31:20;9.00;99.90
44509;DHT22;30214;52.246;14.408;2023-01-08T11:33:53;8.90;99.90
44509;DHT22;30214;52.246;14.408;2023-01-08T11:36:28;9.00;99.90
44509;DHT22;30214;52.246;14.408;2023-01-08T11:38:58;9.00;99.90
44509;DHT22;30214;52.246;14.408;2023-01-08T11:41:36;9.00;99.90
44509;DHT22;30214;52.246;14.408;2023-01-08T11:44:18;9.20;99.90
44509;DHT22;30214;52.246;14.408;2023-01-08T11:47:00;9.20;99.90
44509;DHT22;30214;52.246;14.408;2023-01-08T11:49:44;9.20;99.90
44509;DHT22;30214;52.246;14.408;2023-01-08T11:52:40;9.20;99.90
44509;DHT22;30214;52.246;14.408;2023-01-08T11:55:31;9.20;99.90
44509;DHT22;30214;52.246;14.408;2023-01-08T11:58:21;9.20;99.90
44509;DHT22;30214;52.246;14.408;2023-01-08T12:01:03;9.20;99.90
44509;DHT22;30214;52.246;14.408;2023-01-08T12:03:45;9.20;99.90
44509;DHT22;30214;52.246;14.408;2023-01-08T12:06:25;9.20;99.90
44509;DHT22;30214;52.246;14.408;2023-01-08T12:09:06;9.20;99.90
44509;DHT22;30214;52.246;14.408;2023-01-08T12:11:46;9.20;99.90
44509;DHT22;30214;52.246;14.408;2023-01-08T12:14:28;9.30;99.90
44509;DHT22;30214;52.246;14.408;2023-01-08T12:17:11;9.40;99.90
44509;DHT22;30214;52.246;14.408;2023-01-08T12:20:00;9.40;99.90
44509;DHT22;30214;52.246;14.408;2023-01-08T12:22:40;9.40;99.90
44509;DHT22;30214;52.246;14.408;2023-01-08T12:25:25;9.30;99.90
44509;DHT22;30214;52.246;14.408;2023-01-08T12:28:08;9.30;99.90
44509;DHT22;30214;52.246;14.408;2023-01-08T12:30:56;9.40;99.90
44509;DHT22;30214;52.246;14.408;2023-01-08T12:33:35;9.40;99.90
44509;DHT22;30214;52.246;14.408;2023-01-08T12:36:09;9.40;99.90
44509;DHT22;30214;52.246;14.408;2023-01-08T12:38:42;9.40;99.90
44509;DHT22;30214;52.246;14.408;2023-01-08T12:41:12;9.40;99.90
44509;DHT22;30214;52.246;14.408;2023-01-08T12:43:48;9.40;99.90
44509;DHT22;30214;52.246;14.408;2023-01-08T12:46:19;9.50;99.90
44509;DHT22;30214;52.246;14.408;2023-01-08T12:48:49;9.40;99.90
44509;DHT22;30214;52.246;14.408;2023-01-08T12:51:25;9.40;99.90
44509;DHT22;30214;52.246;14.408;2023-01-08T12:54:00;9.40;99.90
44509;DHT22;30214;52.246;14.408;2023-01-08T12:56:39;9.50;99.90
44509;DHT22;30214;52.246;14.408;2023-01-08T12:59:29;9.50;99.90
44509;DHT22;30214;52.246;14.408;2023-01-08T13:02:11;9.50;99.90
44509;DHT22;30214;52.246;14.408;2023-01-08T13:04:43;9.50;99.90
44509;DHT22;30214;52.246;14.408;2023-01-08T13:07:18;9.50;99.90
44509;DHT22;30214;52.246;14.408;2023-01-08T13:09:54;9.50;99.90
44509;DHT22;30214;52.246;14.408;2023-01-08T13:12:32;9.50;99.90
44509;DHT22;30214;52.246;14.408;2023-01-08T13:15:00;9.50;99.90
44509;DHT22;30214;52.246;14.408;2023-01-08T13:17:28;9.50;99.90
44509;DHT22;30214;52.246;14.408;2023-01-08T13:19:59;9.30;99.90
44509;DHT22;30214;52.246;14.408;2023-01-08T13:22:31;9.30;99.90
44509;DHT22;30214;52.246;14.408;2023-01-08T13:25:26;9.30;99.90
44509;DHT22;30214;52.246;14.408;2023-01-08T13:27:55;9.30;99.90
44509;DHT22;30214;52.246;14.408;2023-01-08T13:30:36;9.30;99.90
44509;DHT22;30214;52.246;14.408;2023-01-08T13:33:25;9.30;99.90
44509;DHT22;30214;52.246;14.408;2023-01-08T13:36:17;9.30;99.90
44509;DHT22;30214;52.246;14.408;2023-01-08T13:38:59;9.20;99.90
44509;DHT22;30214;52.246;14.408;2023-01-08T13:41:28;9.10;99.90
44509;DHT22;30214;52.246;14.408;2023-01-08T13:44:00;9.10;99.90
44509;DHT22;30214;52.246;14.408;2023-01-08T13:46:31;9.10;99.90
44509;DHT22;30214;52.246;14.408;2023-01-08T13:49:03;9.00;99.90
44509;DHT22;30214;52.246;14.408;2023-01-08T13:51:40;9.10;99.90
44509;DHT22;30214;52.246;14.408;2023-01-08T13:54:19;9.00;99.90
44509;DHT22;30214;52.246;14.408;2023-01-08T13:56:52;9.10;99.90
44509;DHT22;30214;52.246;14.408;2023-01-08T13:59:29;9.10;99.90
44509;DHT22;30214;52.246;14.408;2023-01-08T14:02:00;9.00;99.90
44509;DHT22;30214;52.246;14.408;2023-01-08T14:04:27;8.90;99.90
44509;DHT22;30214;52.246;14.408;2023-01-08T14:07:06;8.90;99.90
44509;DHT22;30214;52.246;14.408;2023-01-08T14:09:39;8.90;99.90
44509;DHT22;30214;52.246;14.408;2023-01-08T14:12:10;8.90;99.90
44509;DHT22;30214;52.246;14.408;2023-01-08T14:14:42;8.80;99.90
44509;DHT22;30214;52.246;14.408;2023-01-08T14:17:14;8.80;99.90
44509;DHT22;30214;52.246;14.408;2023-01-08T14:19:42;8.80;99.90
44509;DHT22;30214;52.246;14.408;2023-01-08T14:22:15;8.80;99.90
44509;DHT22;30214;52.246;14.408;2023-01-08T14:24:53;8.80;99.90
44509;DHT22;30214;52.246;14.408;2023-01-08T14:27:25;8.70;99.90
44509;DHT22;30214;52.246;14.408;2023-01-08T14:29:53;8.70;99.90
44509;DHT22;30214;52.246;14.408;2023-01-08T14:32:22;8.70;99.90
44509;DHT22;30214;52.246;14.408;2023-01-08T14:34:51;8.70;99.90
44509;DHT22;30214;52.246;14.408;2023-01-08T14:37:19;8.70;99.90
44509;DHT22;30214;52.246;14.408;2023-01-08T14:39:48;8.70;99.90
44509;DHT22;30214;52.246;14.408;2023-01-08T14:42:19;8.60;99.90
44509;DHT22;30214;52.246;14.408;2023-01-08T14:45:07;8.70;99.90
44509;DHT22;30214;52.246;14.408;2023-01-08T14:47:43;8.60;99.90
44509;DHT22;30214;52.246;14.408;2023-01-08T14:50:19;8.60;99.90
44509;DHT22;30214;52.246;14.408;2023-01-08T14:52:49;8.70;99.90
44509;DHT22;30214;52.246;14.408;2023-01-08T14:55:19;8.70;99.90
44509;DHT22;30214;52.246;14.408;2023-01-08T14:57:48;8.60;99.90
44509;DHT22;30214;52.246;14.408;2023-01-08T15:00:20;8.50;99.90
44509;DHT22;30214;52.246;14.408;2023-01-08T15:02:49;8.50;99.90
44509;DHT22;30214;52.246;14.408;2023-01-08T15:05:19;8.50;99.90
44509;DHT22;30214;52.246;14.408;2023-01-08T15:08:00;8.50;99.90
44509;DHT22;30214;52.246;14.408;2023-01-08T15:10:38;8.40;99.90
44509;DHT22;30214;52.246;14.408;2023-01-08T15:13:20;8.40;99.90
44509;DHT22;30214;52.246;14.408;2023-01-08T15:15:53;8.40;99.90
44509;DHT22;30214;52.246;14.408;2023-01-08T15:18:22;8.40;99.90
44509;DHT22;30214;52.246;14.408;2023-01-08T15:20:50;8.30;99.90
44509;DHT22;30214;52.246;14.408;2023-01-08T15:23:26;8.30;99.90
44509;DHT22;30214;52.246;14.408;2023-01-08T15:25:55;8.20;99.90
44509;DHT22;30214;52.246;14.408;2023-01-08T15:28:22;8.10;99.90
44509;DHT22;30214;52.246;14.408;2023-01-08T15:30:51;8.10;99.90
44509;DHT22;30214;52.246;14.408;2023-01-08T15:33:20;8.10;99.90
44509;DHT22;30214;52.246;14.408;2023-01-08T15:35:49;8.10;99.90
44509;DHT22;30214;52.246;14.408;2023-01-08T15:38:17;8.00;99.90
44509;DHT22;30214;52.246;14.408;2023-01-08T15:40:45;7.90;99.90
44509;DHT22;30214;52.246;14.408;2023-01-08T15:43:16;7.90;99.90
44509;DHT22;30214;52.246;14.408;2023-01-08T15:45:45;7.80;99.90
44509;DHT22;30214;52.246;14.408;2023-01-08T15:48:13;7.80;99.90
44509;DHT22;30214;52.246;14.408;2023-01-08T15:50:42;7.80;99.90
44509;DHT22;30214;52.246;14.408;2023-01-08T15:53:15;7.80;99.90